createdAt,value
2022-10-13T00:00:26.431Z,55.24
2022-10-13T00:02:52.980Z,55.58
2022-10-13T00:05:19.505Z,55.52
2022-10-13T00:07:46.009Z,55.44
2022-10-13T00:10:12.522Z,55.38
2022-10-13T00:12:39.157Z,55.47
2022-10-13T00:15:06.804Z,55.34
2022-10-13T00:17:33.401Z,55.38
2022-10-13T00:19:59.916Z,55.28
2022-10-13T00:22:27.664Z,55.45
2022-10-13T00:24:54.344Z,55.54
2022-10-13T00:27:20.932Z,55.42
2022-10-13T00:29:47.412Z,55.44
2022-10-13T00:32:13.902Z,55.55
2022-10-13T00:34:40.507Z,55.66
2022-10-13T00:37:07.036Z,55.76
2022-10-13T00:39:33.528Z,55.87
2022-10-13T00:42:00.372Z,55.76
2022-10-13T00:45:00.662Z,55.79
2022-10-13T00:47:28.960Z,55.67
2022-10-13T00:49:55.496Z,55.84
2022-10-13T00:52:22.264Z,55.47
2022-10-13T00:54:48.829Z,55.36
2022-10-13T00:57:15.304Z,55.37
2022-10-13T00:59:42.021Z,55.46
2022-10-13T01:02:08.487Z,55.48
2022-10-13T01:04:38.049Z,55.19
2022-10-13T01:07:04.658Z,55.35
2022-10-13T01:09:37.389Z,55.22
2022-10-13T01:12:22.382Z,55.21
2022-10-13T01:15:20.773Z,55.11
2022-10-13T01:18:12.224Z,55.28
2022-10-13T01:21:06.679Z,55.15
2022-10-13T01:23:54.525Z,55.16
2022-10-13T01:26:44.992Z,55.13
2022-10-13T01:29:47.875Z,55.11
2022-10-13T01:32:14.264Z,55.11
2022-10-13T01:34:46.736Z,54.98
2022-10-13T01:37:20.929Z,54.95
2022-10-13T01:39:53.489Z,55.06
2022-10-13T01:42:23.082Z,55.08
2022-10-13T01:44:54.932Z,55.23
2022-10-13T01:47:21.412Z,55.31
2022-10-13T01:49:47.915Z,55.25
2022-10-13T01:52:16.867Z,55.24
2022-10-13T01:54:47.352Z,55.01
2022-10-13T01:57:33.025Z,54.93
2022-10-13T02:00:12.687Z,54.93
2022-10-13T02:03:06.095Z,54.81
2022-10-13T02:05:49.165Z,54.87
2022-10-13T02:08:36.870Z,54.66
2022-10-13T02:11:19.747Z,54.73
2022-10-13T02:14:15.937Z,54.75
2022-10-13T02:16:43.496Z,54.65
2022-10-13T02:19:11.765Z,54.54
2022-10-13T02:21:38.284Z,54.56
2022-10-13T02:24:05.152Z,54.60
2022-10-13T02:26:32.512Z,54.35
2022-10-13T02:28:59.159Z,54.42
2022-10-13T02:31:25.679Z,54.39
2022-10-13T02:33:52.192Z,54.41
2022-10-13T02:36:18.655Z,54.36
2022-10-13T02:38:45.139Z,54.25
2022-10-13T02:41:11.995Z,54.34
2022-10-13T02:43:38.761Z,54.40
2022-10-13T02:46:05.390Z,54.49
2022-10-13T02:48:32.106Z,54.44
2022-10-13T02:50:58.587Z,54.64
2022-10-13T02:53:25.116Z,54.61
2022-10-13T02:55:51.611Z,54.56
2022-10-13T02:58:18.098Z,54.53
2022-10-13T03:00:44.649Z,54.41
2022-10-13T03:03:11.347Z,54.26
2022-10-13T03:05:37.860Z,54.39
2022-10-13T03:08:04.414Z,54.42
2022-10-13T03:10:31.983Z,54.23
2022-10-13T03:12:58.661Z,54.21
2022-10-13T03:15:25.342Z,54.12
2022-10-13T03:17:51.811Z,54.12
2022-10-13T03:20:18.310Z,53.73
2022-10-13T03:22:48.821Z,54.04
2022-10-13T03:25:16.411Z,53.95
2022-10-13T03:27:42.898Z,54.07
2022-10-13T03:30:10.239Z,54.00
2022-10-13T03:32:36.734Z,53.84
2022-10-13T03:35:03.351Z,53.91
2022-10-13T03:37:30.682Z,53.88
2022-10-13T03:39:57.154Z,53.50
2022-10-13T03:42:23.913Z,53.84
2022-10-13T03:44:53.759Z,53.61
2022-10-13T03:47:22.727Z,53.68
2022-10-13T03:49:49.219Z,53.92
2022-10-13T03:52:15.732Z,53.85
2022-10-13T03:54:42.224Z,54.16
2022-10-13T03:57:08.719Z,54.13
2022-10-13T03:59:36.913Z,54.25
2022-10-13T04:02:03.794Z,54.51
2022-10-13T04:04:30.364Z,53.99
2022-10-13T04:06:56.873Z,53.96
2022-10-13T04:09:23.416Z,53.77
2022-10-13T04:11:51.436Z,53.72
2022-10-13T04:14:18.413Z,53.62
2022-10-13T04:16:44.895Z,53.33
2022-10-13T04:19:12.696Z,53.66
2022-10-13T04:21:39.237Z,53.58
2022-10-13T04:24:06.024Z,53.56
2022-10-13T04:26:34.280Z,53.60
2022-10-13T04:29:02.406Z,53.57
2022-10-13T04:31:29.225Z,53.39
2022-10-13T04:33:55.757Z,53.50
2022-10-13T04:36:22.263Z,53.17
2022-10-13T04:38:48.823Z,53.53
2022-10-13T04:41:16.454Z,53.43
2022-10-13T04:43:42.942Z,53.46
2022-10-13T04:46:12.626Z,53.42
2022-10-13T04:48:39.181Z,53.44
2022-10-13T04:51:13.752Z,53.29
2022-10-13T04:53:40.391Z,53.57
2022-10-13T04:56:09.740Z,53.58
2022-10-13T04:58:36.903Z,53.67
2022-10-13T05:01:04.760Z,53.68
2022-10-13T05:03:31.438Z,53.76
2022-10-13T05:05:57.917Z,53.67
2022-10-13T05:08:24.558Z,53.05
2022-10-13T05:11:01.261Z,52.07
2022-10-13T05:13:28.374Z,52.01
2022-10-13T05:15:54.904Z,52.04
2022-10-13T05:18:21.387Z,51.81
2022-10-13T05:20:47.887Z,51.35
2022-10-13T05:23:14.796Z,50.69
2022-10-13T05:25:41.328Z,50.30
2022-10-13T05:28:08.131Z,49.17
2022-10-13T05:30:34.895Z,48.08
2022-10-13T05:33:01.382Z,47.68
2022-10-13T05:35:27.928Z,47.17
2022-10-13T05:37:54.441Z,46.77
2022-10-13T05:40:23.708Z,46.86
2022-10-13T05:42:50.540Z,47.12
2022-10-13T05:45:17.056Z,47.00
2022-10-13T05:47:43.566Z,47.26
2022-10-13T05:50:10.189Z,47.61
2022-10-13T05:52:37.841Z,48.01
2022-10-13T05:55:04.800Z,48.56
2022-10-13T05:57:33.056Z,49.01
2022-10-13T06:00:05.815Z,49.58
2022-10-13T06:02:38.600Z,49.99
2022-10-13T06:05:05.740Z,50.33
2022-10-13T06:07:32.244Z,50.75
2022-10-13T06:09:58.918Z,50.92
2022-10-13T06:12:25.411Z,51.16
2022-10-13T06:14:51.920Z,51.38
2022-10-13T06:17:18.387Z,51.73
2022-10-13T06:19:45.399Z,51.65
2022-10-13T06:22:11.929Z,51.71
2022-10-13T06:24:38.439Z,51.63
2022-10-13T06:27:04.916Z,51.86
2022-10-13T06:29:33.408Z,52.08
2022-10-13T06:31:59.884Z,52.21
2022-10-13T06:34:26.343Z,52.19
2022-10-13T06:36:52.903Z,52.44
2022-10-13T06:39:19.400Z,52.12
2022-10-13T06:41:45.905Z,50.94
2022-10-13T06:44:12.520Z,51.20
2022-10-13T06:46:39.007Z,51.38
2022-10-13T06:49:05.507Z,51.59
2022-10-13T06:51:32.292Z,51.74
2022-10-13T06:53:58.872Z,51.91
2022-10-13T06:56:25.392Z,51.93
2022-10-13T06:58:51.939Z,52.07
2022-10-13T07:01:18.493Z,52.10
2022-10-13T07:03:44.982Z,52.44
2022-10-13T07:06:11.524Z,52.35
2022-10-13T07:08:38.010Z,52.38
2022-10-13T07:11:15.960Z,52.55
2022-10-13T07:13:46.251Z,52.71
2022-10-13T07:16:13.731Z,52.15
2022-10-13T07:18:40.215Z,52.18
2022-10-13T07:21:06.996Z,52.02
2022-10-13T07:23:33.502Z,52.04
2022-10-13T07:26:01.092Z,51.32
2022-10-13T07:28:27.680Z,51.82
2022-10-13T07:30:54.226Z,51.79
2022-10-13T07:33:20.736Z,51.90
2022-10-13T07:35:47.246Z,52.02
2022-10-13T07:38:13.729Z,51.86
2022-10-13T07:40:40.227Z,52.40
2022-10-13T07:43:06.706Z,52.49
2022-10-13T07:45:33.170Z,52.72
2022-10-13T07:47:59.692Z,52.59
2022-10-13T07:50:26.183Z,52.55
2022-10-13T07:52:52.741Z,52.81
2022-10-13T07:55:19.303Z,52.82
2022-10-13T07:57:45.783Z,52.89
2022-10-13T08:00:12.673Z,52.89
2022-10-13T08:02:39.251Z,53.08
2022-10-13T08:05:05.871Z,53.02
2022-10-13T08:07:32.366Z,53.12
2022-10-13T08:09:58.904Z,53.09
2022-10-13T08:12:25.538Z,53.19
2022-10-13T08:14:52.050Z,53.17
2022-10-13T08:17:27.195Z,53.08
2022-10-13T08:19:53.751Z,53.38
2022-10-13T08:22:22.713Z,53.36
2022-10-13T08:24:52.510Z,53.49
2022-10-13T08:27:20.926Z,53.29
2022-10-13T08:29:47.704Z,53.36
2022-10-13T08:32:14.221Z,53.47
2022-10-13T08:34:40.743Z,53.48
2022-10-13T08:37:15.409Z,53.57
2022-10-13T08:39:42.015Z,53.63
2022-10-13T08:42:18.225Z,53.62
2022-10-13T08:47:54.261Z,53.71
2022-10-13T08:50:25.536Z,53.73
2022-10-13T08:52:54.940Z,53.62
2022-10-13T08:55:45.350Z,53.80
2022-10-13T08:58:19.778Z,53.65
2022-10-13T09:00:46.274Z,53.76
2022-10-13T09:03:30.739Z,54.05
2022-10-13T09:05:59.930Z,53.83
2022-10-13T09:08:26.943Z,54.09
2022-10-13T09:10:53.843Z,53.82
2022-10-13T09:13:20.483Z,53.92
2022-10-13T09:15:50.226Z,53.85
2022-10-13T09:18:16.906Z,53.93
2022-10-13T09:20:43.370Z,53.86
2022-10-13T09:23:20.758Z,53.93
2022-10-13T09:25:51.268Z,53.97
2022-10-13T09:28:29.540Z,54.07
2022-10-13T09:31:11.599Z,54.11
2022-10-13T09:33:40.851Z,54.16
2022-10-13T09:36:15.221Z,54.26
2022-10-13T09:38:45.515Z,54.41
2022-10-13T09:41:17.516Z,54.40
2022-10-13T09:43:59.332Z,54.55
2022-10-13T09:46:34.570Z,54.51
2022-10-13T09:49:09.087Z,54.56
2022-10-13T09:51:41.046Z,54.71
2022-10-13T09:54:26.691Z,54.73
2022-10-13T09:56:59.338Z,54.74
2022-10-13T09:59:33.422Z,54.88
2022-10-13T10:02:02.209Z,54.75
2022-10-13T10:04:37.924Z,54.76
2022-10-13T10:07:16.045Z,54.64
2022-10-13T10:09:47.375Z,54.62
2022-10-13T10:12:20.263Z,54.73
2022-10-13T10:14:50.128Z,54.63
2022-10-13T10:17:28.712Z,54.66
2022-10-13T10:20:07.953Z,54.46
2022-10-13T10:22:44.406Z,54.52
2022-10-13T10:25:23.092Z,54.52
2022-10-13T10:27:56.415Z,54.38
2022-10-13T10:30:22.939Z,54.58
2022-10-13T10:32:55.084Z,54.48
2022-10-13T10:35:42.495Z,54.75
2022-10-13T10:38:24.431Z,54.68
2022-10-13T10:41:07.599Z,54.49
2022-10-13T10:43:44.269Z,54.62
2022-10-13T10:46:32.302Z,54.67
2022-10-13T10:49:04.085Z,54.65
2022-10-13T10:51:32.613Z,54.61
2022-10-13T10:54:17.104Z,54.67
2022-10-13T10:57:03.036Z,54.58
2022-10-13T10:59:51.647Z,54.49
2022-10-13T11:02:38.484Z,54.69
2022-10-13T11:05:06.426Z,54.63
2022-10-13T11:07:33.286Z,54.57
2022-10-13T11:09:59.688Z,54.63
2022-10-13T11:12:28.856Z,54.64
2022-10-13T11:14:55.242Z,54.96
2022-10-13T11:17:29.507Z,54.63
2022-10-13T11:19:56.315Z,54.84
2022-10-13T11:22:29.969Z,54.81
2022-10-13T11:25:00.859Z,54.64
2022-10-13T11:27:30.620Z,54.86
2022-10-13T11:29:58.313Z,54.63
2022-10-13T11:32:41.255Z,54.62
2022-10-13T11:35:10.389Z,54.72
2022-10-13T11:38:15.312Z,54.52
2022-10-13T11:41:03.024Z,54.49
2022-10-13T11:43:48.336Z,54.50
2022-10-13T11:46:14.732Z,54.63
2022-10-13T11:49:00.519Z,54.60
2022-10-13T11:51:36.796Z,54.51
2022-10-13T11:54:19.404Z,54.51
2022-10-13T11:56:51.440Z,54.72
2022-10-13T11:59:29.180Z,54.56
2022-10-13T12:01:59.792Z,54.68
2022-10-13T12:04:28.376Z,54.53
2022-10-13T12:07:00.451Z,54.69
2022-10-13T12:09:29.134Z,54.66
2022-10-13T12:11:57.612Z,54.64
2022-10-13T12:14:40.273Z,54.75
2022-10-13T12:17:23.331Z,54.64
2022-10-13T12:19:50.506Z,54.71
2022-10-13T12:22:17.003Z,54.71
2022-10-13T12:24:43.497Z,54.86
2022-10-13T12:27:20.519Z,54.58
2022-10-13T12:29:47.230Z,54.96
2022-10-13T12:32:24.682Z,54.79
2022-10-13T12:34:51.184Z,54.54
2022-10-13T12:37:29.460Z,54.76
2022-10-13T12:39:56.464Z,54.74
2022-10-13T12:42:26.720Z,54.75
2022-10-13T12:44:53.273Z,54.77
2022-10-13T12:47:39.789Z,54.78
2022-10-13T12:50:30.805Z,54.87
2022-10-13T12:53:20.003Z,54.74
2022-10-13T12:55:50.388Z,54.71
2022-10-13T12:58:33.592Z,54.63
2022-10-13T13:01:07.628Z,54.77
2022-10-13T13:03:36.128Z,54.64
2022-10-13T13:06:14.928Z,54.88
2022-10-13T13:08:42.178Z,54.74
2022-10-13T13:11:35.596Z,54.79
2022-10-13T13:14:24.451Z,54.83
2022-10-13T13:17:02.812Z,54.81
2022-10-13T13:19:32.452Z,54.78
2022-10-13T13:21:59.069Z,54.83
2022-10-13T13:24:36.037Z,54.89
2022-10-13T13:27:19.588Z,55.01
2022-10-13T13:29:46.411Z,54.89
2022-10-13T13:32:14.093Z,54.81
2022-10-13T13:34:40.692Z,54.85
2022-10-13T13:37:22.998Z,54.84
2022-10-13T13:39:50.432Z,54.91
2022-10-13T13:42:16.958Z,54.83
2022-10-13T13:44:43.534Z,54.86
2022-10-13T13:47:23.961Z,54.87
2022-10-13T13:49:51.118Z,54.98
2022-10-13T13:52:18.058Z,54.97
2022-10-13T13:54:44.878Z,54.95
2022-10-13T13:57:12.015Z,54.97
2022-10-13T13:59:39.234Z,54.93
2022-10-13T14:02:06.401Z,54.96
2022-10-13T14:04:33.614Z,55.18
2022-10-13T14:07:00.155Z,54.93
2022-10-13T14:09:26.649Z,54.85
2022-10-13T14:11:53.162Z,54.98
2022-10-13T14:14:19.723Z,54.89
2022-10-13T14:16:46.264Z,54.98
2022-10-13T14:19:12.911Z,54.81
2022-10-13T14:21:39.456Z,54.93
2022-10-13T14:24:06.243Z,54.97
2022-10-13T14:26:32.747Z,54.63
2022-10-13T14:28:59.349Z,54.95
2022-10-13T14:31:25.947Z,55.04
2022-10-13T14:33:54.414Z,54.84
2022-10-13T14:36:21.148Z,55.09
2022-10-13T14:38:47.669Z,55.12
2022-10-13T14:41:16.978Z,54.98
2022-10-13T14:43:43.732Z,55.04
2022-10-13T14:46:10.200Z,55.00
2022-10-13T14:48:37.109Z,55.02
2022-10-13T14:51:07.359Z,55.01
2022-10-13T14:53:38.359Z,55.14
2022-10-13T14:56:22.098Z,54.90
2022-10-13T14:58:48.952Z,54.96
2022-10-13T15:01:15.739Z,55.12
2022-10-13T15:03:42.344Z,55.13
2022-10-13T15:06:19.545Z,55.34
2022-10-13T15:08:46.228Z,55.15
2022-10-13T15:11:13.108Z,55.07
2022-10-13T15:13:39.752Z,55.23
2022-10-13T15:16:06.792Z,55.05
2022-10-13T15:18:34.759Z,55.07
2022-10-13T15:21:01.279Z,55.30
2022-10-13T15:23:27.926Z,55.31
2022-10-13T15:25:58.753Z,55.38
2022-10-13T15:28:29.689Z,55.40
2022-10-13T15:30:56.227Z,55.49
2022-10-13T15:33:22.896Z,55.29
2022-10-13T15:35:50.187Z,55.45
2022-10-13T15:38:17.250Z,55.25
2022-10-13T15:40:43.802Z,55.33
2022-10-13T15:43:10.341Z,55.45
2022-10-13T15:45:36.823Z,55.01
2022-10-13T15:48:03.655Z,55.37
2022-10-13T15:50:30.212Z,55.36
2022-10-13T15:52:56.983Z,55.20
2022-10-13T15:55:23.531Z,55.23
2022-10-13T15:57:50.038Z,55.20
2022-10-13T16:00:16.843Z,55.38
2022-10-13T16:02:43.687Z,55.32
2022-10-13T16:05:11.780Z,55.60
2022-10-13T16:07:41.491Z,55.43
2022-10-13T16:10:09.102Z,55.41
2022-10-13T16:12:35.592Z,55.42
2022-10-13T16:15:02.204Z,55.30
2022-10-13T16:17:28.672Z,55.53
2022-10-13T16:19:55.263Z,55.44
2022-10-13T16:22:22.190Z,55.42
2022-10-13T16:24:49.015Z,55.34
2022-10-13T16:27:15.520Z,55.20
2022-10-13T16:29:42.000Z,55.11
2022-10-13T16:32:08.509Z,55.42
2022-10-13T16:34:35.019Z,55.39
2022-10-13T16:37:01.524Z,55.41
2022-10-13T16:39:28.494Z,55.45
2022-10-13T16:41:55.087Z,55.38
2022-10-13T16:44:21.600Z,55.46
2022-10-13T16:46:49.697Z,55.39
2022-10-13T16:49:16.208Z,55.45
2022-10-13T16:51:42.709Z,55.40
2022-10-13T16:54:09.476Z,55.67
2022-10-13T16:56:36.026Z,55.72
2022-10-13T16:59:04.540Z,55.67
2022-10-13T17:01:31.392Z,55.75
2022-10-13T17:03:57.929Z,55.71
2022-10-13T17:06:25.618Z,55.66
2022-10-13T17:08:52.147Z,55.54
2022-10-13T17:11:20.270Z,55.58
2022-10-13T17:13:46.945Z,55.55
2022-10-13T17:16:13.452Z,55.76
2022-10-13T17:18:40.044Z,55.50
2022-10-13T17:21:09.073Z,55.54
2022-10-13T17:23:35.728Z,55.53
2022-10-13T17:26:09.540Z,55.52
2022-10-13T17:28:36.252Z,55.54
2022-10-13T17:31:09.456Z,55.76
2022-10-13T17:33:36.651Z,55.81
2022-10-13T17:36:12.200Z,55.79
2022-10-13T17:38:38.677Z,55.77
2022-10-13T17:41:06.178Z,55.78
2022-10-13T17:43:34.486Z,55.82
2022-10-13T17:46:38.370Z,55.74
2022-10-13T17:49:09.783Z,55.71
2022-10-13T17:51:36.345Z,55.64
2022-10-13T17:54:02.860Z,55.85
2022-10-13T17:56:29.760Z,55.60
2022-10-13T17:58:56.679Z,55.84
2022-10-13T18:01:30.438Z,55.72
2022-10-13T18:03:58.375Z,55.68
2022-10-13T18:06:25.110Z,55.86
2022-10-13T18:08:52.151Z,55.77
2022-10-13T18:11:19.795Z,55.76
2022-10-13T18:13:46.287Z,55.76
2022-10-13T18:16:17.557Z,55.74
2022-10-13T18:18:44.960Z,55.67
2022-10-13T18:21:13.264Z,55.67
2022-10-13T18:23:39.791Z,55.80
2022-10-13T18:26:07.948Z,55.69
2022-10-13T18:28:35.924Z,55.72
2022-10-13T18:31:08.919Z,55.60
2022-10-13T18:33:35.421Z,55.68
2022-10-13T18:36:02.122Z,55.83
2022-10-13T18:38:28.585Z,55.68
2022-10-13T18:40:59.221Z,55.63
2022-10-13T18:43:25.682Z,55.70
2022-10-13T18:45:52.175Z,55.59
2022-10-13T18:48:19.829Z,55.74
2022-10-13T18:50:46.343Z,55.71
2022-10-13T18:53:12.800Z,55.74
2022-10-13T18:55:42.745Z,55.89
2022-10-13T18:58:09.445Z,55.74
2022-10-13T19:00:36.254Z,55.71
2022-10-13T19:03:02.911Z,55.69
2022-10-13T19:05:29.606Z,55.75
2022-10-13T19:07:56.091Z,55.73
2022-10-13T19:10:22.590Z,55.49
2022-10-13T19:12:49.042Z,55.97
2022-10-13T19:15:15.548Z,55.76
2022-10-13T19:17:42.035Z,55.73
2022-10-13T19:20:08.886Z,55.76
2022-10-13T19:22:35.372Z,55.66
2022-10-13T19:25:01.851Z,55.77
2022-10-13T19:27:28.344Z,55.67
2022-10-13T19:29:54.847Z,55.91
2022-10-13T19:32:21.351Z,56.29
2022-10-13T19:34:47.864Z,56.10
2022-10-13T19:37:16.334Z,55.88
2022-10-13T19:39:42.862Z,55.86
2022-10-13T19:42:09.354Z,55.82
2022-10-13T19:44:35.835Z,55.74
2022-10-13T19:47:02.290Z,55.94
2022-10-13T19:49:28.806Z,55.82
2022-10-13T19:51:55.899Z,55.85
2022-10-13T19:54:22.596Z,55.91
2022-10-13T19:56:49.322Z,55.80
2022-10-13T19:59:16.256Z,55.92
2022-10-13T20:01:42.774Z,55.61
2022-10-13T20:04:09.303Z,55.83
2022-10-13T20:06:36.038Z,55.88
2022-10-13T20:09:02.506Z,55.88
2022-10-13T20:11:28.979Z,55.81
2022-10-13T20:13:55.481Z,56.07
2022-10-13T20:16:23.314Z,55.84
2022-10-13T20:18:54.000Z,55.91
2022-10-13T20:21:20.716Z,55.94
2022-10-13T20:23:47.276Z,55.84
2022-10-13T20:26:13.944Z,55.88
2022-10-13T20:28:43.113Z,55.83
2022-10-13T20:31:10.615Z,55.95
2022-10-13T20:33:37.167Z,55.86
2022-10-13T20:36:05.528Z,55.80
2022-10-13T20:38:32.705Z,55.81
2022-10-13T20:41:08.628Z,55.95
2022-10-13T20:43:35.232Z,55.94
2022-10-13T20:46:04.779Z,55.64
2022-10-13T20:48:45.569Z,55.82
2022-10-13T20:51:21.563Z,55.92
2022-10-13T20:53:48.567Z,55.86
2022-10-13T20:56:22.888Z,55.78
2022-10-13T20:58:49.551Z,55.99
2022-10-13T21:01:16.551Z,55.98
2022-10-13T21:03:43.115Z,55.90
2022-10-13T21:06:11.169Z,56.00
2022-10-13T21:08:37.716Z,55.95
2022-10-13T21:11:11.451Z,55.99
2022-10-13T21:13:38.847Z,55.94
2022-10-13T21:16:09.352Z,56.10
2022-10-13T21:18:35.879Z,55.98
2022-10-13T21:21:06.096Z,56.02
2022-10-13T21:23:32.654Z,56.06
2022-10-13T21:26:05.655Z,55.90
2022-10-13T21:28:32.272Z,56.09
2022-10-13T21:31:02.824Z,55.97
2022-10-13T21:33:29.435Z,56.08
2022-10-13T21:35:55.915Z,55.98
2022-10-13T21:38:22.660Z,55.96
2022-10-13T21:40:53.673Z,56.25
2022-10-13T21:43:20.511Z,56.19
2022-10-13T21:45:46.985Z,56.02
2022-10-13T21:48:13.516Z,55.90
2022-10-13T21:50:40.000Z,56.33
2022-10-13T21:53:06.549Z,55.69
2022-10-13T21:55:33.109Z,56.04
2022-10-13T21:58:05.239Z,56.14
2022-10-13T22:00:32.153Z,56.12
2022-10-13T22:02:58.731Z,56.20
2022-10-13T22:05:25.206Z,56.24
2022-10-13T22:07:51.727Z,56.17
2022-10-13T22:10:18.319Z,56.12
2022-10-13T22:12:44.803Z,56.12
2022-10-13T22:15:11.690Z,56.22
2022-10-13T22:17:38.202Z,56.47
2022-10-13T22:20:04.989Z,56.17
2022-10-13T22:22:31.501Z,56.20
2022-10-13T22:24:58.033Z,56.19
2022-10-13T22:27:24.500Z,56.13
2022-10-13T22:29:51.179Z,55.95
2022-10-13T22:32:17.674Z,56.20
2022-10-13T22:34:44.169Z,56.22
2022-10-13T22:37:10.672Z,56.25
2022-10-13T22:39:37.168Z,56.36
2022-10-13T22:42:03.829Z,56.20
2022-10-13T22:44:30.308Z,56.21
2022-10-13T22:46:56.799Z,56.35
2022-10-13T22:49:23.295Z,56.19
2022-10-13T22:51:49.762Z,56.18
2022-10-13T22:54:16.295Z,56.19
2022-10-13T22:56:43.119Z,56.42
2022-10-13T22:59:09.791Z,56.19
2022-10-13T23:01:36.267Z,56.31
2022-10-13T23:04:02.798Z,56.28
2022-10-13T23:06:30.815Z,56.12
2022-10-13T23:08:59.999Z,56.30
2022-10-13T23:11:26.474Z,55.91
2022-10-13T23:13:53.015Z,56.21
2022-10-13T23:16:21.735Z,56.19
2022-10-13T23:18:48.287Z,56.14
2022-10-13T23:21:16.725Z,56.20
2022-10-13T23:23:43.235Z,56.34
2022-10-13T23:26:16.841Z,56.24
2022-10-13T23:28:43.788Z,56.28
2022-10-13T23:31:14.769Z,56.27
2022-10-13T23:33:41.341Z,56.24
2022-10-13T23:36:08.886Z,56.19
2022-10-13T23:38:35.439Z,56.25
2022-10-13T23:41:06.052Z,56.17
2022-10-13T23:43:32.643Z,56.21
2022-10-13T23:45:59.181Z,56.23
2022-10-13T23:48:25.687Z,56.19
2022-10-13T23:50:52.172Z,56.00
2022-10-13T23:53:18.649Z,56.34
2022-10-13T23:55:45.146Z,56.33
2022-10-13T23:58:11.620Z,56.30
